createdAt,value
2018-03-02T00:00:52.013Z,3.1
2018-03-02T00:01:54.996Z,3.1
2018-03-02T00:02:57.408Z,3.2
2018-03-02T00:03:59.813Z,3
2018-03-02T00:05:02.234Z,3
2018-03-02T00:06:04.636Z,3.1
2018-03-02T00:07:07.333Z,3.1
2018-03-02T00:08:10.030Z,3.2
2018-03-02T00:09:12.751Z,3.2
2018-03-02T00:10:15.159Z,3.2
2018-03-02T00:11:17.877Z,3.2
2018-03-02T00:12:20.273Z,3.2
2018-03-02T00:13:22.686Z,3.3
2018-03-02T00:14:25.408Z,3.1
2018-03-02T00:15:27.808Z,3.2
2018-03-02T00:16:30.218Z,3.1
2018-03-02T00:17:32.626Z,3.2
2018-03-02T00:18:35.321Z,3.1
2018-03-02T00:19:38.014Z,3.1
2018-03-02T00:20:40.420Z,3.1
2018-03-02T00:21:43.411Z,3
2018-03-02T00:22:45.813Z,3.1
2018-03-02T00:23:48.496Z,3.1
2018-03-02T00:24:50.902Z,3.1
2018-03-02T00:25:53.586Z,3.1
2018-03-02T00:26:55.999Z,3
2018-03-02T00:27:58.415Z,3.2
2018-03-02T00:29:01.120Z,3.1
2018-03-02T00:30:03.533Z,3.1
2018-03-02T00:31:05.944Z,3.1
2018-03-02T00:32:08.650Z,3.2
2018-03-02T00:33:11.049Z,3.1
2018-03-02T00:34:13.460Z,3.1
2018-03-02T00:35:15.864Z,3.1
2018-03-02T00:36:18.284Z,3
2018-03-02T00:37:20.996Z,3.1
2018-03-02T00:38:23.397Z,3
2018-03-02T00:39:26.396Z,3
2018-03-02T00:40:28.808Z,3.2
2018-03-02T00:41:31.215Z,3
2018-03-02T00:42:33.907Z,3
2018-03-02T00:43:36.591Z,3.1
2018-03-02T00:44:39.000Z,3.1
2018-03-02T00:45:41.425Z,3.3
2018-03-02T00:46:43.830Z,3.1
2018-03-02T00:47:46.231Z,3.1
2018-03-02T00:48:48.647Z,3.2
2018-03-02T00:49:51.045Z,3
2018-03-02T00:50:53.454Z,3.4
2018-03-02T00:51:56.159Z,3
2018-03-02T00:52:58.560Z,3
2018-03-02T00:54:01.267Z,3
2018-03-02T00:55:03.667Z,3
2018-03-02T00:56:06.087Z,3.2
2018-03-02T00:57:08.814Z,3.2
2018-03-02T00:58:11.229Z,3.2
2018-03-02T00:59:13.644Z,3.2
2018-03-02T01:00:16.045Z,3.1
2018-03-02T01:01:18.447Z,3
2018-03-02T01:02:21.156Z,3.1
2018-03-02T01:03:23.560Z,3.1
2018-03-02T01:04:26.270Z,3
2018-03-02T01:05:28.690Z,3.1
2018-03-02T01:06:31.090Z,3
2018-03-02T01:07:33.499Z,3
2018-03-02T01:08:36.204Z,3.2
2018-03-02T01:09:38.601Z,3.2
2018-03-02T01:10:41.294Z,3.2
2018-03-02T01:11:43.746Z,3.1
2018-03-02T01:12:46.109Z,3.1
2018-03-02T01:13:48.513Z,3.6
2018-03-02T01:14:50.929Z,3.1
2018-03-02T01:15:53.617Z,3.4
2018-03-02T01:16:56.023Z,3.1
2018-03-02T01:17:58.427Z,3
2018-03-02T01:19:00.818Z,3
2018-03-02T01:20:03.224Z,3.2
2018-03-02T01:21:05.633Z,3.1
2018-03-02T01:22:08.335Z,3.1
2018-03-02T01:23:10.736Z,3.1
2018-03-02T01:24:13.143Z,3.1
2018-03-02T01:25:15.551Z,3.1
2018-03-02T01:26:17.967Z,3.1
2018-03-02T01:27:20.652Z,3.1
2018-03-02T01:28:23.058Z,3.1
2018-03-02T01:29:25.455Z,3
2018-03-02T01:30:27.866Z,3
2018-03-02T01:31:30.840Z,2.9
2018-03-02T01:32:33.245Z,3
2018-03-02T01:33:35.631Z,3
2018-03-02T01:34:38.047Z,3
2018-03-02T01:35:40.447Z,3.1
2018-03-02T01:36:42.847Z,3.1
2018-03-02T01:37:45.260Z,3.2
2018-03-02T01:38:47.666Z,3.1
2018-03-02T01:39:50.360Z,3.1
2018-03-02T01:40:52.768Z,3.1
2018-03-02T01:41:55.171Z,3
2018-03-02T01:42:58.149Z,2.9
2018-03-02T01:44:00.554Z,2.9
2018-03-02T01:45:02.973Z,3
2018-03-02T01:46:05.655Z,2.9
2018-03-02T01:47:08.345Z,3
2018-03-02T01:48:10.739Z,3
2018-03-02T01:49:13.133Z,3
2018-03-02T01:50:15.541Z,3.1
2018-03-02T01:51:18.235Z,3.1
2018-03-02T01:52:20.635Z,3.1
2018-03-02T01:53:23.337Z,3.2
2018-03-02T01:54:25.733Z,3
2018-03-02T01:55:28.139Z,3
2018-03-02T01:56:30.545Z,2.9
2018-03-02T01:57:32.950Z,2.9
2018-03-02T01:58:35.347Z,3
2018-03-02T01:59:37.753Z,3
2018-03-02T02:00:40.151Z,2.9
2018-03-02T02:01:42.556Z,3.2
2018-03-02T02:02:44.963Z,3.1
2018-03-02T02:03:47.365Z,3.1
2018-03-02T02:04:50.056Z,3.1
2018-03-02T02:05:52.749Z,3
2018-03-02T02:06:55.147Z,3.1
2018-03-02T02:07:57.549Z,3
2018-03-02T02:08:59.959Z,3
2018-03-02T02:10:02.642Z,2.9
2018-03-02T02:11:05.050Z,3.2
2018-03-02T02:12:07.751Z,2.9
2018-03-02T02:13:10.153Z,2.9
2018-03-02T02:14:12.560Z,2.9
2018-03-02T02:15:15.552Z,2.9
2018-03-02T02:16:17.952Z,3
2018-03-02T02:17:20.344Z,3
2018-03-02T02:18:22.759Z,3
2018-03-02T02:19:25.445Z,3
2018-03-02T02:20:27.837Z,3.1
2018-03-02T02:21:30.245Z,2.9
2018-03-02T02:22:32.939Z,3
2018-03-02T02:23:35.349Z,3.6
2018-03-02T02:24:37.742Z,2.9
2018-03-02T02:25:40.137Z,2.9
2018-03-02T02:26:42.534Z,3
2018-03-02T02:27:44.951Z,2.9
2018-03-02T02:28:47.342Z,3
2018-03-02T02:29:49.760Z,2.9
2018-03-02T02:30:52.724Z,3
2018-03-02T02:31:55.412Z,2.9
2018-03-02T02:32:58.438Z,3
2018-03-02T02:34:00.836Z,3
2018-03-02T02:35:03.821Z,3
2018-03-02T02:36:06.223Z,3.1
2018-03-02T02:37:08.625Z,2.9
2018-03-02T02:38:11.033Z,2.9
2018-03-02T02:39:13.441Z,3
2018-03-02T02:40:15.876Z,2.9
2018-03-02T02:41:18.527Z,3
2018-03-02T02:42:20.935Z,3.1
2018-03-02T02:43:23.331Z,3
2018-03-02T02:44:25.736Z,2.9
2018-03-02T02:45:28.132Z,2.9
2018-03-02T02:46:30.540Z,3
2018-03-02T02:47:33.239Z,2.9
2018-03-02T02:48:35.647Z,3
2018-03-02T02:49:38.050Z,3
2018-03-02T02:50:40.464Z,3
2018-03-02T02:51:42.855Z,3
2018-03-02T02:52:46.191Z,3
2018-03-02T02:53:48.890Z,3
2018-03-02T02:54:51.284Z,3.1
2018-03-02T02:55:53.682Z,3
2018-03-02T02:56:56.091Z,3
2018-03-02T02:57:58.771Z,2.9
2018-03-02T02:59:01.176Z,2.9
2018-03-02T03:00:03.584Z,2.9
2018-03-02T03:01:05.977Z,2.9
2018-03-02T03:02:08.972Z,2.8
2018-03-02T03:03:11.371Z,2.9
2018-03-02T03:04:13.773Z,2.9
2018-03-02T03:05:16.767Z,3.1
2018-03-02T03:06:19.156Z,3.8
2018-03-02T03:07:21.850Z,3
2018-03-02T03:08:24.261Z,3
2018-03-02T03:09:26.947Z,3
2018-03-02T03:10:29.352Z,3
2018-03-02T03:11:32.041Z,3.1
2018-03-02T03:12:34.717Z,3.3
2018-03-02T03:13:37.129Z,3
2018-03-02T03:14:39.527Z,2.9
2018-03-02T03:15:42.208Z,2.7
2018-03-02T03:16:44.620Z,2.9
2018-03-02T03:17:47.016Z,2.8
2018-03-02T03:18:49.421Z,2.8
2018-03-02T03:19:51.828Z,2.9
2018-03-02T03:20:54.517Z,2.8
2018-03-02T03:21:56.914Z,2.8
2018-03-02T03:22:59.315Z,3
2018-03-02T03:24:01.718Z,2.9
2018-03-02T03:25:04.119Z,2.9
2018-03-02T03:26:06.803Z,2.9
2018-03-02T03:27:09.496Z,3
2018-03-02T03:28:12.476Z,2.9
2018-03-02T03:29:14.886Z,3
2018-03-02T03:30:17.284Z,3
2018-03-02T03:31:19.687Z,2.9
2018-03-02T03:32:22.094Z,2.9
2018-03-02T03:33:24.499Z,2.8
2018-03-02T03:34:26.893Z,2.9
2018-03-02T03:35:29.301Z,2.9
2018-03-02T03:36:31.692Z,2.9
2018-03-02T03:37:34.377Z,2.9
2018-03-02T03:38:36.780Z,3
2018-03-02T03:39:39.182Z,2.9
2018-03-02T03:40:41.574Z,3
2018-03-02T03:41:43.983Z,2.9
2018-03-02T03:42:46.378Z,2.8
2018-03-02T03:43:48.779Z,2.8
2018-03-02T03:44:51.188Z,2.9
2018-03-02T03:45:53.593Z,2.8
2018-03-02T03:46:55.989Z,2.8
2018-03-02T03:47:58.688Z,3
2018-03-02T03:49:01.083Z,3
2018-03-02T03:50:03.492Z,3
2018-03-02T03:51:06.177Z,2.9
2018-03-02T03:52:08.570Z,3.2
2018-03-02T03:53:10.974Z,2.9
2018-03-02T03:54:13.376Z,3.1
2018-03-02T03:55:15.778Z,2.9
2018-03-02T03:56:18.178Z,2.9
2018-03-02T03:57:20.575Z,2.8
2018-03-02T03:58:22.986Z,2.8
2018-03-02T03:59:25.388Z,2.8
2018-03-02T04:00:27.784Z,2.9
2018-03-02T04:01:30.469Z,3.2
2018-03-02T04:02:32.881Z,3
2018-03-02T04:03:35.276Z,3
2018-03-02T04:04:37.967Z,2.8
2018-03-02T04:05:40.361Z,2.9
2018-03-02T04:06:42.759Z,2.8
2018-03-02T04:07:45.176Z,2.9
2018-03-02T04:08:47.567Z,2.9
2018-03-02T04:09:49.966Z,2.8
2018-03-02T04:10:52.655Z,2.8
2018-03-02T04:11:55.059Z,2.8
2018-03-02T04:12:57.457Z,2.8
2018-03-02T04:13:59.864Z,2.9
2018-03-02T04:15:02.254Z,2.9
2018-03-02T04:16:04.654Z,3.1
2018-03-02T04:17:07.055Z,2.9
2018-03-02T04:18:09.455Z,2.8
2018-03-02T04:19:11.844Z,2.8
2018-03-02T04:20:14.252Z,2.8
2018-03-02T04:21:16.648Z,2.8
2018-03-02T04:22:19.043Z,2.8
2018-03-02T04:23:21.486Z,3
2018-03-02T04:24:23.851Z,2.8
2018-03-02T04:25:26.257Z,3
2018-03-02T04:26:28.658Z,2.9
2018-03-02T04:27:31.054Z,2.8
2018-03-02T04:28:33.738Z,2.8
2018-03-02T04:29:36.149Z,2.8
2018-03-02T04:30:38.820Z,2.8
2018-03-02T04:31:41.224Z,2.8
2018-03-02T04:32:43.629Z,2.8
2018-03-02T04:33:46.305Z,2.7
2018-03-02T04:34:48.710Z,2.7
2018-03-02T04:35:51.105Z,2.7
2018-03-02T04:36:53.507Z,2.9
2018-03-02T04:37:55.905Z,2.9
2018-03-02T04:38:58.310Z,3
2018-03-02T04:40:00.713Z,3.3
2018-03-02T04:41:03.118Z,2.8
2018-03-02T04:42:05.515Z,2.8
2018-03-02T04:43:07.911Z,2.8
2018-03-02T04:44:10.321Z,2.8
2018-03-02T04:45:12.715Z,2.8
2018-03-02T04:46:15.106Z,2.8
2018-03-02T04:47:17.501Z,2.9
2018-03-02T04:48:19.916Z,2.9
2018-03-02T04:49:22.598Z,2.8
2018-03-02T04:50:25.002Z,3
2018-03-02T04:51:27.692Z,2.8
2018-03-02T04:52:30.100Z,2.8
2018-03-02T04:53:32.796Z,2.8
2018-03-02T04:54:35.200Z,2.8
2018-03-02T04:55:37.587Z,2.8
2018-03-02T04:56:40.279Z,3
2018-03-02T04:57:42.683Z,3
2018-03-02T04:58:45.080Z,2.8
2018-03-02T04:59:47.485Z,2.9
2018-03-02T05:00:50.175Z,3
2018-03-02T05:01:52.573Z,2.9
2018-03-02T05:02:54.975Z,3
2018-03-02T05:03:57.384Z,3
2018-03-02T05:04:59.780Z,3.1
2018-03-02T05:06:02.192Z,2.8
2018-03-02T05:07:04.593Z,2.8
2018-03-02T05:08:07.001Z,2.8
2018-03-02T05:09:09.413Z,2.9
2018-03-02T05:10:11.799Z,2.7
2018-03-02T05:11:14.191Z,2.8
2018-03-02T05:12:16.595Z,2.7
2018-03-02T05:13:19.274Z,2.9
2018-03-02T05:14:21.682Z,3
2018-03-02T05:15:24.081Z,3
2018-03-02T05:16:27.056Z,2.9
2018-03-02T05:17:29.459Z,2.9
2018-03-02T05:18:32.146Z,2.8
2018-03-02T05:19:34.549Z,2.9
2018-03-02T05:20:36.957Z,2.8
2018-03-02T05:21:39.724Z,2.8
2018-03-02T05:22:42.068Z,2.8
2018-03-02T05:23:44.751Z,2.8
2018-03-02T05:24:47.444Z,2.9
2018-03-02T05:25:49.842Z,2.8
2018-03-02T05:26:52.561Z,2.8
2018-03-02T05:27:54.958Z,2.8
2018-03-02T05:28:57.378Z,2.7
2018-03-02T05:29:59.766Z,2.8
2018-03-02T05:31:02.472Z,3.4
2018-03-02T05:32:05.456Z,3
2018-03-02T05:33:08.417Z,2.9
2018-03-02T05:34:10.816Z,2.9
2018-03-02T05:35:13.222Z,2.9
2018-03-02T05:36:15.624Z,2.8
2018-03-02T05:37:18.039Z,2.9
2018-03-02T05:38:20.716Z,2.8
2018-03-02T05:39:23.418Z,2.8
2018-03-02T05:40:25.820Z,2.9
2018-03-02T05:41:28.215Z,2.9
2018-03-02T05:42:30.608Z,2.8
2018-03-02T05:43:33.021Z,2.8
2018-03-02T05:44:35.416Z,2.8
2018-03-02T05:45:38.123Z,2.8
2018-03-02T05:46:40.532Z,2.8
2018-03-02T05:47:43.211Z,2.8
2018-03-02T05:48:45.618Z,2.8
2018-03-02T05:49:48.012Z,2.8
2018-03-02T05:50:50.416Z,2.9
2018-03-02T05:51:52.818Z,3
2018-03-02T05:52:55.220Z,2.9
2018-03-02T05:53:57.603Z,2.8
2018-03-02T05:55:00.015Z,2.9
2018-03-02T05:56:02.410Z,2.9
2018-03-02T05:57:05.091Z,2.8
2018-03-02T05:58:07.501Z,2.8
2018-03-02T05:59:10.219Z,2.7
2018-03-02T06:00:12.647Z,2.7
2018-03-02T06:01:15.335Z,2.8
2018-03-02T06:02:17.730Z,2.8
2018-03-02T06:03:20.140Z,2.8
2018-03-02T06:04:22.541Z,3
2018-03-02T06:05:25.225Z,3
2018-03-02T06:06:27.622Z,2.9
2018-03-02T06:07:30.333Z,2.9
2018-03-02T06:08:32.726Z,3.2
2018-03-02T06:09:35.707Z,2.8
2018-03-02T06:10:38.111Z,2.9
2018-03-02T06:11:40.511Z,2.9
2018-03-02T06:12:42.916Z,2.9
2018-03-02T06:13:45.324Z,2.7
2018-03-02T06:14:47.729Z,2.8
2018-03-02T06:15:50.130Z,2.8
2018-03-02T06:16:52.524Z,2.8
2018-03-02T06:17:54.938Z,2.8
2018-03-02T06:18:57.325Z,2.9
2018-03-02T06:19:59.735Z,2.8
2018-03-02T06:21:02.428Z,3
2018-03-02T06:22:04.821Z,2.9
2018-03-02T06:23:07.226Z,2.8
2018-03-02T06:24:09.629Z,3
2018-03-02T06:25:12.311Z,2.8
2018-03-02T06:26:15.011Z,2.8
2018-03-02T06:27:17.414Z,2.8
2018-03-02T06:28:19.805Z,2.8
2018-03-02T06:29:22.808Z,2.9
2018-03-02T06:30:25.200Z,2.8
2018-03-02T06:31:27.906Z,2.8
2018-03-02T06:32:30.299Z,2.8
2018-03-02T06:33:32.693Z,2.8
2018-03-02T06:34:35.087Z,2.9
2018-03-02T06:35:37.490Z,2.9
2018-03-02T06:36:39.876Z,2.9
2018-03-02T06:37:42.291Z,3.3
2018-03-02T06:38:44.965Z,2.8
2018-03-02T06:39:47.368Z,2.8
2018-03-02T06:40:49.769Z,2.9
2018-03-02T06:41:52.176Z,2.8
2018-03-02T06:42:54.576Z,2.8
2018-03-02T06:43:56.973Z,2.8
2018-03-02T06:44:59.387Z,2.9
2018-03-02T06:46:02.062Z,2.9
2018-03-02T06:47:04.464Z,2.8
2018-03-02T06:48:07.141Z,2.8
2018-03-02T06:49:09.544Z,3
2018-03-02T06:50:11.937Z,2.9
2018-03-02T06:51:14.346Z,2.9
2018-03-02T06:52:16.744Z,2.9
2018-03-02T06:53:19.155Z,2.8
2018-03-02T06:54:21.558Z,2.9
2018-03-02T06:55:23.964Z,2.8
2018-03-02T06:56:26.355Z,2.8
2018-03-02T06:57:28.756Z,2.8
2018-03-02T06:58:31.154Z,2.8
2018-03-02T06:59:33.552Z,2.3
2018-03-02T07:00:35.964Z,3
2018-03-02T07:01:38.349Z,2.9
2018-03-02T07:02:41.040Z,2.9
2018-03-02T07:03:43.441Z,2.9
2018-03-02T07:04:46.127Z,2.9
2018-03-02T07:05:48.516Z,2.8
2018-03-02T07:06:50.920Z,2.9
2018-03-02T07:07:53.313Z,2.8
2018-03-02T07:08:55.717Z,2.8
2018-03-02T07:09:58.123Z,2.9
2018-03-02T07:11:00.514Z,3
2018-03-02T07:12:02.912Z,2.9
2018-03-02T07:13:05.326Z,3
2018-03-02T07:14:08.344Z,2.9
2018-03-02T07:15:10.800Z,3.1
2018-03-02T07:16:14.489Z,2.9
2018-03-02T07:17:17.754Z,3
2018-03-02T07:18:20.101Z,3.1
2018-03-02T07:19:22.510Z,3
2018-03-02T07:20:24.909Z,3
2018-03-02T07:21:27.323Z,3.1
2018-03-02T07:22:29.726Z,3
2018-03-02T07:23:32.123Z,3.1
2018-03-02T07:24:34.526Z,3.4
2018-03-02T07:25:36.929Z,2.9
2018-03-02T07:26:39.323Z,2.9
2018-03-02T07:27:42.013Z,2.9
2018-03-02T07:28:44.416Z,3
2018-03-02T07:29:46.815Z,3
2018-03-02T07:30:49.217Z,3
2018-03-02T07:31:51.613Z,3
2018-03-02T07:32:54.027Z,3.1
2018-03-02T07:33:56.421Z,3
2018-03-02T07:34:58.825Z,3
2018-03-02T07:36:01.235Z,3
2018-03-02T07:37:03.656Z,3
2018-03-02T07:38:06.335Z,2.9
2018-03-02T07:39:09.029Z,3
2018-03-02T07:40:11.424Z,2.9
2018-03-02T07:41:13.835Z,3
2018-03-02T07:42:16.516Z,3
2018-03-02T07:43:18.914Z,3
2018-03-02T07:44:21.945Z,3.1
2018-03-02T07:45:24.361Z,3.1
2018-03-02T07:46:26.758Z,3.2
2018-03-02T07:47:29.159Z,3.1
2018-03-02T07:48:31.568Z,3.1
2018-03-02T07:49:33.963Z,3
2018-03-02T07:50:36.366Z,3.1
2018-03-02T07:51:38.768Z,2.9
2018-03-02T07:52:41.168Z,3
2018-03-02T07:53:43.575Z,3
2018-03-02T07:54:45.980Z,3
2018-03-02T07:55:48.384Z,3
2018-03-02T07:56:50.790Z,3.2
2018-03-02T07:57:53.197Z,3.1
2018-03-02T07:58:55.889Z,3.1
2018-03-02T07:59:58.304Z,3.3
2018-03-02T08:01:00.980Z,3.1
2018-03-02T08:02:03.386Z,3.2
2018-03-02T08:03:05.805Z,3.5
2018-03-02T08:04:08.209Z,3.2
2018-03-02T08:05:10.611Z,3.2
2018-03-02T08:06:13.014Z,3.2
2018-03-02T08:07:15.409Z,3.2
2018-03-02T08:08:17.826Z,3.2
2018-03-02T08:09:20.236Z,3.3
2018-03-02T08:10:22.645Z,3.4
2018-03-02T08:11:25.046Z,3.4
2018-03-02T08:12:27.459Z,3.5
2018-03-02T08:13:29.862Z,3.4
2018-03-02T08:14:32.280Z,3.4
2018-03-02T08:15:34.681Z,3.3
2018-03-02T08:16:37.090Z,3.5
2018-03-02T08:17:39.499Z,3.5
2018-03-02T08:18:41.908Z,3.4
2018-03-02T08:19:44.322Z,3.7
2018-03-02T08:20:46.734Z,3.7
2018-03-02T08:21:49.142Z,3.6
2018-03-02T08:22:51.835Z,3.6
2018-03-02T08:23:54.247Z,3.6
2018-03-02T08:24:56.668Z,3.6
2018-03-02T08:25:59.092Z,3.7
2018-03-02T08:27:01.484Z,3.8
2018-03-02T08:28:03.885Z,3.8
2018-03-02T08:29:06.298Z,3.8
2018-03-02T08:30:08.704Z,4
2018-03-02T08:31:11.704Z,3.8
2018-03-02T08:32:14.111Z,3.9
2018-03-02T08:33:16.518Z,3.9
2018-03-02T08:34:18.943Z,3.8
2018-03-02T08:35:21.354Z,3.8
2018-03-02T08:36:23.773Z,3.8
2018-03-02T08:37:26.177Z,4.1
2018-03-02T08:38:28.902Z,3.9
2018-03-02T08:39:31.316Z,4
2018-03-02T08:40:33.908Z,4
2018-03-02T08:41:38.363Z,4.1
2018-03-02T08:42:44.682Z,4
2018-03-02T08:43:47.568Z,4.1
2018-03-02T08:44:49.975Z,4.1
2018-03-02T08:45:52.672Z,4.1
2018-03-02T08:46:55.091Z,4.2
2018-03-02T08:47:57.507Z,4.1
2018-03-02T08:48:59.923Z,4.1
2018-03-02T08:50:02.349Z,4.2
2018-03-02T08:51:05.053Z,4.1
2018-03-02T08:52:08.044Z,4.3
2018-03-02T08:53:10.740Z,4.3
2018-03-02T08:54:13.159Z,4.2
2018-03-02T08:55:15.564Z,4.4
2018-03-02T08:56:17.982Z,4.3
2018-03-02T08:57:20.381Z,4.2
2018-03-02T08:58:22.806Z,4.1
2018-03-02T08:59:25.216Z,4.4
2018-03-02T09:00:27.916Z,4.2
2018-03-02T09:01:30.324Z,4.4
2018-03-02T09:02:32.735Z,4.2
2018-03-02T09:03:35.158Z,4.4
2018-03-02T09:04:37.572Z,4.3
2018-03-02T09:05:39.981Z,4.2
2018-03-02T09:06:42.683Z,4.3
2018-03-02T09:07:45.102Z,4.3
2018-03-02T09:08:47.512Z,4.3
2018-03-02T09:09:49.923Z,4.4
2018-03-02T09:10:52.649Z,4.4
2018-03-02T09:11:55.062Z,4.3
2018-03-02T09:12:57.468Z,4.3
2018-03-02T09:13:59.874Z,4.3
2018-03-02T09:15:02.582Z,4.4
2018-03-02T09:16:04.992Z,4.3
2018-03-02T09:17:07.691Z,4.4
2018-03-02T09:18:10.113Z,4.4
2018-03-02T09:19:12.842Z,4.5
2018-03-02T09:20:15.263Z,4.4
2018-03-02T09:21:17.686Z,4.3
2018-03-02T09:22:20.096Z,4.4
2018-03-02T09:23:22.511Z,4.3
2018-03-02T09:24:24.936Z,4.4
2018-03-02T09:25:27.348Z,4.3
2018-03-02T09:26:29.766Z,4.4
2018-03-02T09:27:32.185Z,4.4
2018-03-02T09:28:34.596Z,4.5
2018-03-02T09:29:37.013Z,4.4
2018-03-02T09:30:39.440Z,4.3
2018-03-02T09:31:41.841Z,4.3
2018-03-02T09:32:44.264Z,4.4
2018-03-02T09:33:46.694Z,4.4
2018-03-02T09:34:49.398Z,4.6
2018-03-02T09:35:52.423Z,4.5
2018-03-02T09:36:55.124Z,4.6
2018-03-02T09:37:57.826Z,4.5
2018-03-02T09:39:00.249Z,4.5
2018-03-02T09:40:02.662Z,4.5
2018-03-02T09:41:05.084Z,4.5
2018-03-02T09:42:07.492Z,4.4
2018-03-02T09:43:09.909Z,4.5
2018-03-02T09:44:12.326Z,4.4
2018-03-02T09:45:14.754Z,4.5
2018-03-02T09:46:17.160Z,4.5
2018-03-02T09:47:19.870Z,4.5
2018-03-02T09:48:22.297Z,4.5
2018-03-02T09:49:24.709Z,4.5
2018-03-02T09:50:27.133Z,4.4
2018-03-02T09:51:29.847Z,4.4
2018-03-02T09:52:32.267Z,4.5
2018-03-02T09:53:34.684Z,4.6
2018-03-02T09:54:37.099Z,4.5
2018-03-02T09:55:39.805Z,4.5
2018-03-02T09:56:42.548Z,4.5
2018-03-02T09:57:44.961Z,4.5
2018-03-02T09:58:47.385Z,4.5
2018-03-02T09:59:49.805Z,4.4
2018-03-02T10:00:52.222Z,4.4
2018-03-02T10:01:54.651Z,4.5
2018-03-02T10:02:57.060Z,4.5
2018-03-02T10:03:59.476Z,4.5
2018-03-02T10:05:02.193Z,4.5
2018-03-02T10:06:04.602Z,4.5
2018-03-02T10:07:07.022Z,4.5
2018-03-02T10:08:09.438Z,4.4
2018-03-02T10:09:11.850Z,4.4
2018-03-02T10:10:14.274Z,4.6
2018-03-02T10:11:16.691Z,4.5
2018-03-02T10:12:19.110Z,4.6
2018-03-02T10:13:21.537Z,4.6
2018-03-02T10:14:23.949Z,4.5
2018-03-02T10:15:26.381Z,4.5
2018-03-02T10:16:29.092Z,4.5
2018-03-02T10:17:31.511Z,4.5
2018-03-02T10:18:34.223Z,4.6
2018-03-02T10:19:36.645Z,4.6
2018-03-02T10:20:39.342Z,4.5
2018-03-02T10:21:41.782Z,4.6
2018-03-02T10:22:44.200Z,4.5
2018-03-02T10:23:46.617Z,4.6
2018-03-02T10:24:49.042Z,4.5
2018-03-02T10:25:51.459Z,4.5
2018-03-02T10:26:54.173Z,4.5
2018-03-02T10:27:56.600Z,4.6
2018-03-02T10:28:59.022Z,4.6
2018-03-02T10:30:01.449Z,4.6
2018-03-02T10:31:03.871Z,4.5
2018-03-02T10:32:06.573Z,4.5
2018-03-02T10:33:08.988Z,4.5
2018-03-02T10:34:11.412Z,4.5
2018-03-02T10:35:13.828Z,4.6
2018-03-02T10:36:16.250Z,4.6
2018-03-02T10:37:18.950Z,4.6
2018-03-02T10:38:21.363Z,4.6
2018-03-02T10:39:23.789Z,4.5
2018-03-02T10:40:26.513Z,4.5
2018-03-02T10:41:28.929Z,4.5
2018-03-02T10:42:31.630Z,4.6
2018-03-02T10:43:34.060Z,4.7
2018-03-02T10:44:36.767Z,4.7
2018-03-02T10:45:39.172Z,4.6
2018-03-02T10:46:41.907Z,4.6
2018-03-02T10:47:44.333Z,4.6
2018-03-02T10:48:46.750Z,4.5
2018-03-02T10:49:49.176Z,4.6
2018-03-02T10:50:51.601Z,4.6
2018-03-02T10:51:54.020Z,4.6
2018-03-02T10:52:56.456Z,4.6
2018-03-02T10:53:58.878Z,4.8
2018-03-02T10:55:01.593Z,4.6
2018-03-02T10:56:04.307Z,4.6
2018-03-02T10:57:06.719Z,4.6
2018-03-02T10:58:09.144Z,4.6
2018-03-02T10:59:11.934Z,4.6
2018-03-02T11:00:14.366Z,4.6
2018-03-02T11:01:16.789Z,4.6
2018-03-02T11:02:19.774Z,4.7
2018-03-02T11:03:22.186Z,4.6
2018-03-02T11:04:24.927Z,4.6
2018-03-02T11:05:27.338Z,4.5
2018-03-02T11:06:30.352Z,4.6
2018-03-02T11:07:33.089Z,4.6
2018-03-02T11:08:35.516Z,4.6
2018-03-02T11:09:37.936Z,4.5
2018-03-02T11:10:40.357Z,4.5
2018-03-02T11:11:43.073Z,4.5
2018-03-02T11:12:45.491Z,4.6
2018-03-02T11:13:47.914Z,4.6
2018-03-02T11:14:50.325Z,4.6
2018-03-02T11:15:52.750Z,4.5
2018-03-02T11:16:55.162Z,4.5
2018-03-02T11:17:57.882Z,4.5
2018-03-02T11:19:00.296Z,4.5
2018-03-02T11:20:02.724Z,4.5
2018-03-02T11:21:05.152Z,4.6
2018-03-02T11:22:07.578Z,4.6
2018-03-02T11:23:10.278Z,4.6
2018-03-02T11:24:12.699Z,4.6
2018-03-02T11:25:15.116Z,4.5
2018-03-02T11:26:17.536Z,4.5
2018-03-02T11:27:19.971Z,4.5
2018-03-02T11:28:22.372Z,4.5
2018-03-02T11:29:24.792Z,4.6
2018-03-02T11:30:27.217Z,4.6
2018-03-02T11:31:29.926Z,4.6
2018-03-02T11:32:32.344Z,4.5
2018-03-02T11:33:34.768Z,4.5
2018-03-02T11:34:37.179Z,4.5
2018-03-02T11:35:39.673Z,4.5
2018-03-02T11:36:42.384Z,4.7
2018-03-02T11:37:44.797Z,4.6
2018-03-02T11:38:47.218Z,4.6
2018-03-02T11:39:49.929Z,4.6
2018-03-02T11:40:52.347Z,4.6
2018-03-02T11:41:54.758Z,4.5
2018-03-02T11:42:57.176Z,4.6
2018-03-02T11:43:59.600Z,4.5
2018-03-02T11:45:02.015Z,4.6
2018-03-02T11:46:04.451Z,4.5
2018-03-02T11:47:06.922Z,4.7
2018-03-02T11:48:09.293Z,4.5
2018-03-02T11:49:11.717Z,4.5
2018-03-02T11:50:14.133Z,4.6
2018-03-02T11:51:17.274Z,4.6
2018-03-02T11:52:19.874Z,4.6
2018-03-02T11:53:22.637Z,4.6
2018-03-02T11:54:25.059Z,4.6
2018-03-02T11:55:27.481Z,4.6
2018-03-02T11:56:29.909Z,4.6
2018-03-02T11:57:32.316Z,4.7
2018-03-02T11:58:34.744Z,4.6
2018-03-02T11:59:37.150Z,4.6
2018-03-02T12:00:39.574Z,4.6
2018-03-02T12:01:42.278Z,4.6
2018-03-02T12:02:44.708Z,4.6
2018-03-02T12:03:47.414Z,4.6
2018-03-02T12:04:49.839Z,4.7
2018-03-02T12:05:52.258Z,4.6
2018-03-02T12:06:54.687Z,4.7
2018-03-02T12:07:57.104Z,4.7
2018-03-02T12:08:59.521Z,4.6
2018-03-02T12:10:01.936Z,4.6
2018-03-02T12:11:04.370Z,4.6
2018-03-02T12:12:06.793Z,4.8
2018-03-02T12:13:09.207Z,4.7
2018-03-02T12:14:11.632Z,4.6
2018-03-02T12:15:14.059Z,4.7
2018-03-02T12:16:16.483Z,4.6
2018-03-02T12:17:18.909Z,4.6
2018-03-02T12:18:21.611Z,4.7
2018-03-02T12:19:24.026Z,4.8
2018-03-02T12:20:26.459Z,4.7
2018-03-02T12:21:28.878Z,4.7
2018-03-02T12:22:31.317Z,4.6
2018-03-02T12:23:34.060Z,4.7
2018-03-02T12:24:36.486Z,4.6
2018-03-02T12:25:39.193Z,4.6
2018-03-02T12:26:41.613Z,4.6
2018-03-02T12:27:44.337Z,4.7
2018-03-02T12:28:46.756Z,4.7
2018-03-02T12:29:49.187Z,4.7
2018-03-02T12:30:51.605Z,4.7
2018-03-02T12:31:54.033Z,4.6
2018-03-02T12:32:56.446Z,4.6
2018-03-02T12:33:59.186Z,4.6
2018-03-02T12:35:02.214Z,4.6
2018-03-02T12:36:04.631Z,4.6
2018-03-02T12:37:07.334Z,4.8
2018-03-02T12:38:09.757Z,4.7
2018-03-02T12:39:12.482Z,4.7
2018-03-02T12:40:14.910Z,4.7
2018-03-02T12:41:17.333Z,4.6
2018-03-02T12:42:20.046Z,4.6
2018-03-02T12:43:22.477Z,4.6
2018-03-02T12:44:24.887Z,4.6
2018-03-02T12:45:27.306Z,4.6
2018-03-02T12:46:29.731Z,4.6
2018-03-02T12:47:32.447Z,4.7
2018-03-02T12:48:34.856Z,4.7
2018-03-02T12:49:37.277Z,4.6
2018-03-02T12:50:39.690Z,4.7
2018-03-02T12:51:42.123Z,4.6
2018-03-02T12:52:44.549Z,4.6
2018-03-02T12:53:46.960Z,4.6
2018-03-02T12:54:49.964Z,4.7
2018-03-02T12:55:52.371Z,4.7
2018-03-02T12:56:55.106Z,4.7
2018-03-02T12:57:57.543Z,4.6
2018-03-02T12:58:59.952Z,4.7
2018-03-02T13:00:02.718Z,4.7
2018-03-02T13:01:05.123Z,4.6
2018-03-02T13:02:07.546Z,4.6
2018-03-02T13:03:09.964Z,4.6
2018-03-02T13:04:12.668Z,4.7
2018-03-02T13:05:15.377Z,4.8
2018-03-02T13:06:18.101Z,4.7
2018-03-02T13:07:20.811Z,4.7
2018-03-02T13:08:23.223Z,4.8
2018-03-02T13:09:25.671Z,4.6
2018-03-02T13:10:28.074Z,4.6
2018-03-02T13:11:30.499Z,4.6
2018-03-02T13:12:32.927Z,4.6
2018-03-02T13:13:35.627Z,4.7
2018-03-02T13:14:38.342Z,4.7
2018-03-02T13:15:40.756Z,4.7
2018-03-02T13:16:43.180Z,5
2018-03-02T13:17:45.607Z,4.7
2018-03-02T13:18:48.031Z,4.6
2018-03-02T13:19:50.447Z,4.6
2018-03-02T13:20:52.869Z,4.6
2018-03-02T13:21:55.294Z,4.6
2018-03-02T13:22:57.714Z,4.7
2018-03-02T13:24:00.176Z,4.6
2018-03-02T13:25:02.552Z,4.6
2018-03-02T13:26:04.981Z,4.5
2018-03-02T13:27:07.396Z,4.5
2018-03-02T13:28:09.831Z,4.5
2018-03-02T13:29:12.247Z,4.6
2018-03-02T13:30:14.726Z,4.6
2018-03-02T13:31:17.093Z,4.5
2018-03-02T13:32:19.507Z,4.6
2018-03-02T13:33:22.215Z,4.6
2018-03-02T13:34:24.938Z,4.5
2018-03-02T13:35:27.355Z,4.5
2018-03-02T13:36:29.777Z,4.5
2018-03-02T13:37:32.199Z,4.5
2018-03-02T13:38:34.619Z,4.7
2018-03-02T13:39:37.039Z,4.7
2018-03-02T13:40:39.465Z,4.6
2018-03-02T13:41:41.876Z,4.5
2018-03-02T13:42:44.299Z,4.5
2018-03-02T13:43:47.301Z,4.5
2018-03-02T13:44:49.712Z,4.5
2018-03-02T13:45:52.416Z,4.5
2018-03-02T13:46:54.840Z,4.6
2018-03-02T13:47:57.252Z,4.5
2018-03-02T13:48:59.676Z,4.6
2018-03-02T13:50:02.391Z,4.6
2018-03-02T13:51:04.804Z,4.5
2018-03-02T13:52:07.222Z,4.5
2018-03-02T13:53:09.665Z,4.5
2018-03-02T13:54:12.373Z,4.5
2018-03-02T13:55:14.798Z,4.5
2018-03-02T13:56:17.490Z,4.5
2018-03-02T13:57:19.920Z,4.6
2018-03-02T13:58:22.339Z,4.5
2018-03-02T13:59:24.752Z,4.5
2018-03-02T14:00:27.171Z,4.5
2018-03-02T14:01:29.585Z,4.5
2018-03-02T14:02:31.998Z,4.5
2018-03-02T14:03:34.423Z,4.5
2018-03-02T14:04:36.832Z,4.5
2018-03-02T14:05:39.257Z,4.6
2018-03-02T14:06:41.676Z,4.6
2018-03-02T14:07:44.102Z,4.6
2018-03-02T14:08:46.526Z,4.5
2018-03-02T14:09:48.941Z,4.5
2018-03-02T14:10:51.650Z,4.5
2018-03-02T14:11:54.065Z,4.6
2018-03-02T14:12:56.763Z,4.6
2018-03-02T14:13:59.178Z,4.6
2018-03-02T14:15:01.891Z,4.6
2018-03-02T14:16:04.310Z,4.6
2018-03-02T14:17:07.026Z,4.5
2018-03-02T14:18:09.442Z,4.5
2018-03-02T14:19:12.154Z,4.5
2018-03-02T14:20:14.566Z,4.5
2018-03-02T14:21:16.988Z,4.5
2018-03-02T14:22:19.406Z,4.5
2018-03-02T14:23:21.829Z,4.6
2018-03-02T14:24:24.240Z,4.5
2018-03-02T14:25:26.664Z,4.5
2018-03-02T14:26:29.372Z,4.6
2018-03-02T14:27:31.793Z,4.5
2018-03-02T14:28:34.214Z,4.4
2018-03-02T14:29:36.637Z,4.5